createdAt,value
2023-01-31T00:02:00.082Z,59.66
2023-01-31T00:04:28.116Z,59.54
2023-01-31T00:06:55.914Z,59.70
2023-01-31T00:09:24.374Z,59.64
2023-01-31T00:11:53.423Z,59.87
2023-01-31T00:14:22.894Z,59.99
2023-01-31T00:16:52.666Z,60.05
2023-01-31T00:19:20.316Z,60.36
2023-01-31T00:21:48.168Z,59.58
2023-01-31T00:24:16.719Z,59.67
2023-01-31T00:26:44.673Z,60.06
2023-01-31T00:29:12.903Z,59.96
2023-01-31T00:31:43.011Z,59.50
2023-01-31T00:34:12.493Z,59.51
2023-01-31T00:36:40.514Z,59.69
2023-01-31T00:39:09.810Z,59.71
2023-01-31T00:41:39.405Z,60.06
2023-01-31T00:44:07.786Z,59.96
2023-01-31T00:46:36.809Z,59.60
2023-01-31T00:49:06.571Z,59.89
2023-01-31T00:51:34.739Z,60.49
2023-01-31T00:54:03.537Z,59.88
2023-01-31T00:56:31.332Z,59.71
2023-01-31T00:59:00.361Z,60.37
2023-01-31T01:01:30.380Z,60.07
2023-01-31T01:03:59.216Z,60.21
2023-01-31T01:06:29.460Z,60.36
2023-01-31T01:09:00.320Z,59.96
2023-01-31T01:11:30.319Z,60.65
2023-01-31T01:13:59.264Z,60.32
2023-01-31T01:16:30.074Z,59.49
2023-01-31T01:18:57.889Z,59.57
2023-01-31T01:21:27.797Z,60.09
2023-01-31T01:24:03.280Z,60.41
2023-01-31T01:26:34.418Z,59.81
2023-01-31T01:29:04.222Z,59.69
2023-01-31T01:31:32.578Z,60.49
2023-01-31T01:34:02.825Z,59.78
2023-01-31T01:36:34.859Z,60.02
2023-01-31T01:39:05.432Z,60.10
2023-01-31T01:41:34.584Z,60.35
2023-01-31T01:44:05.042Z,60.31
2023-01-31T01:46:37.018Z,60.13
2023-01-31T01:49:14.479Z,60.16
2023-01-31T01:51:44.919Z,60.33
2023-01-31T01:54:19.814Z,60.72
2023-01-31T01:56:53.647Z,60.56
2023-01-31T01:59:26.554Z,60.41
2023-01-31T02:01:58.503Z,59.89
2023-01-31T02:04:31.971Z,60.24
2023-01-31T02:07:02.720Z,59.85
2023-01-31T02:09:41.051Z,60.25
2023-01-31T02:12:11.824Z,60.11
2023-01-31T02:14:39.900Z,60.20
2023-01-31T02:17:14.159Z,60.27
2023-01-31T02:19:56.880Z,60.69
2023-01-31T02:22:31.588Z,61.23
2023-01-31T02:25:46.977Z,60.95
2023-01-31T02:34:59.188Z,60.86
2023-01-31T02:37:36.839Z,60.50
2023-01-31T07:14:12.212Z,65.65
2023-01-31T07:16:43.620Z,65.44
2023-01-31T07:19:12.378Z,64.82
2023-01-31T07:21:40.447Z,65.00
2023-01-31T07:24:09.675Z,65.19
2023-01-31T07:29:31.321Z,65.08
2023-01-31T07:34:50.923Z,64.56
2023-01-31T07:37:19.331Z,64.86
2023-01-31T07:39:48.538Z,64.46
2023-01-31T07:42:19.406Z,65.05
2023-01-31T07:44:50.204Z,64.46
2023-01-31T07:47:20.871Z,64.59
2023-01-31T07:49:51.129Z,64.78
2023-01-31T07:52:19.460Z,64.29
2023-01-31T07:54:49.156Z,65.32
2023-01-31T07:57:23.047Z,64.89
2023-01-31T07:59:57.014Z,64.65
2023-01-31T08:02:42.514Z,64.94
2023-01-31T08:05:11.387Z,64.96
2023-01-31T08:07:41.661Z,65.01
2023-01-31T08:10:17.671Z,65.44
2023-01-31T08:12:45.828Z,64.74
2023-01-31T08:15:22.726Z,65.15
2023-01-31T08:17:54.366Z,65.18
2023-01-31T08:20:26.125Z,65.15
2023-01-31T08:22:54.735Z,65.40
2023-01-31T08:25:27.552Z,65.67
2023-01-31T08:27:56.065Z,65.77
2023-01-31T08:30:31.434Z,65.00
2023-01-31T08:55:00.109Z,65.68
2023-01-31T08:57:30.239Z,64.90
2023-01-31T09:00:00.531Z,64.77
2023-01-31T09:02:28.918Z,65.09
2023-01-31T09:04:58.556Z,65.45
2023-01-31T09:07:26.984Z,65.35
2023-01-31T09:09:55.097Z,65.11
2023-01-31T09:12:24.335Z,65.26
2023-01-31T09:14:52.778Z,65.93
2023-01-31T09:17:20.904Z,65.12
2023-01-31T09:19:49.250Z,65.76
2023-01-31T09:22:17.209Z,65.60
2023-01-31T09:24:46.067Z,66.02
2023-01-31T09:27:13.868Z,65.65
2023-01-31T09:29:43.307Z,65.76
2023-01-31T09:32:11.137Z,65.70
2023-01-31T09:34:38.907Z,65.97
2023-01-31T09:37:06.842Z,65.77
2023-01-31T09:39:34.665Z,65.61
2023-01-31T09:42:12.118Z,65.45
2023-01-31T09:44:44.436Z,64.99
2023-01-31T09:47:19.439Z,65.48
2023-01-31T09:49:53.864Z,65.63
2023-01-31T09:55:17.942Z,65.21
2023-01-31T09:57:54.963Z,65.18
2023-01-31T10:00:30.603Z,65.15
2023-01-31T10:03:18.961Z,64.86
2023-01-31T10:05:52.755Z,64.86
2023-01-31T10:08:33.160Z,64.80
2023-01-31T10:11:04.088Z,65.11
2023-01-31T10:13:37.063Z,64.84
2023-01-31T10:16:16.345Z,65.11
2023-01-31T10:18:50.579Z,65.01
2023-01-31T10:21:21.501Z,64.80
2023-01-31T10:23:54.474Z,64.88
2023-01-31T10:26:26.818Z,64.83
2023-01-31T10:29:00.967Z,65.25
2023-01-31T10:31:33.804Z,64.80
2023-01-31T10:34:07.694Z,64.90
2023-01-31T10:36:39.545Z,65.03
2023-01-31T10:39:13.566Z,64.79
2023-01-31T10:41:52.528Z,64.62
2023-01-31T10:44:25.781Z,64.69
2023-01-31T10:46:59.537Z,64.19
2023-01-31T10:49:30.153Z,64.41
2023-01-31T10:52:14.410Z,64.78
2023-01-31T10:54:54.556Z,64.92
2023-01-31T10:57:23.641Z,64.53
2023-01-31T10:59:52.990Z,64.33
2023-01-31T11:02:25.293Z,64.27
2023-01-31T11:04:55.030Z,64.65
2023-01-31T11:07:23.066Z,64.11
2023-01-31T11:09:54.689Z,63.68
2023-01-31T11:12:23.375Z,64.34
2023-01-31T11:15:08.353Z,63.90
2023-01-31T11:17:40.412Z,63.29
2023-01-31T11:20:20.727Z,63.38
2023-01-31T11:22:49.105Z,63.34
2023-01-31T11:25:22.710Z,63.06
2023-01-31T11:27:54.044Z,62.99
2023-01-31T11:30:27.394Z,63.08
2023-01-31T11:32:57.544Z,62.88
2023-01-31T11:35:29.663Z,62.82
2023-01-31T11:37:59.905Z,63.17
2023-01-31T11:40:31.490Z,62.89
2023-01-31T11:43:01.095Z,63.34
2023-01-31T11:45:31.314Z,63.39
2023-01-31T11:48:08.623Z,63.32
2023-01-31T11:50:40.488Z,63.17
2023-01-31T11:53:18.031Z,63.09
2023-01-31T11:55:48.019Z,63.40
2023-01-31T11:58:21.212Z,63.16
2023-01-31T12:00:58.376Z,63.15
2023-01-31T12:03:28.457Z,63.15
2023-01-31T12:06:02.914Z,63.16
2023-01-31T12:08:33.319Z,62.96
2023-01-31T12:11:07.227Z,63.31
2023-01-31T12:13:47.993Z,63.60
2023-01-31T12:16:19.418Z,63.35
2023-01-31T12:19:05.356Z,63.27
2023-01-31T12:21:50.649Z,63.40
2023-01-31T12:24:32.981Z,63.25
2023-01-31T12:27:05.863Z,63.66
2023-01-31T12:30:09.410Z,63.26
2023-01-31T12:32:51.336Z,63.24
2023-01-31T12:35:36.415Z,63.45
2023-01-31T12:38:16.706Z,63.26
2023-01-31T12:40:53.042Z,63.72
2023-01-31T12:43:37.017Z,63.97
2023-01-31T12:46:16.199Z,63.30
2023-01-31T12:49:21.025Z,63.49
2023-01-31T12:52:01.422Z,63.54
2023-01-31T12:54:48.831Z,63.86
2023-01-31T12:57:31.514Z,63.26
2023-01-31T13:00:12.028Z,63.41
2023-01-31T13:02:46.906Z,64.07
2023-01-31T13:05:28.582Z,63.56
2023-01-31T13:08:04.073Z,64.38
2023-01-31T13:10:40.314Z,64.71
2023-01-31T13:13:19.096Z,64.63
2023-01-31T13:15:55.129Z,65.85
2023-01-31T13:18:24.526Z,65.50
2023-01-31T13:20:58.588Z,65.53
2023-01-31T13:23:32.312Z,65.88
2023-01-31T13:26:09.437Z,65.81
2023-01-31T13:28:44.267Z,66.58
2023-01-31T13:31:19.471Z,66.43
2023-01-31T13:33:52.452Z,66.72
2023-01-31T13:36:26.195Z,67.07
2023-01-31T13:38:55.712Z,66.65
2023-01-31T13:44:18.340Z,66.98
2023-01-31T13:46:53.101Z,66.93
2023-01-31T13:49:27.120Z,67.76
2023-01-31T13:51:57.747Z,67.53
2023-01-31T13:54:31.753Z,67.88
2023-01-31T13:57:01.687Z,68.50
2023-01-31T13:59:32.348Z,67.87
2023-01-31T14:02:01.599Z,68.22
2023-01-31T14:04:39.113Z,68.03
2023-01-31T14:07:21.300Z,68.52
2023-01-31T14:10:38.075Z,69.00
2023-01-31T14:13:27.677Z,68.27
2023-01-31T14:15:55.944Z,69.14
2023-01-31T14:18:47.505Z,68.79
2023-01-31T14:21:46.676Z,69.06
2023-01-31T14:24:23.171Z,69.24
2023-01-31T14:26:55.013Z,69.43
2023-01-31T14:29:26.112Z,69.91
2023-01-31T14:31:56.948Z,69.75
2023-01-31T14:34:26.958Z,69.42
2023-01-31T14:37:07.350Z,70.43
2023-01-31T14:40:04.820Z,70.58
2023-01-31T14:43:05.478Z,70.08
2023-01-31T14:45:44.983Z,70.42
2023-01-31T14:48:23.751Z,70.96
2023-01-31T14:51:08.170Z,70.53
2023-01-31T14:54:09.721Z,70.15
2023-01-31T14:56:58.611Z,70.28
2023-01-31T14:59:31.847Z,70.23
2023-01-31T15:02:22.363Z,70.71
2023-01-31T15:04:57.474Z,70.51
2023-01-31T15:07:26.119Z,69.88
2023-01-31T15:09:55.384Z,70.30
2023-01-31T15:12:55.352Z,70.56
2023-01-31T15:15:29.090Z,70.36
2023-01-31T15:18:03.593Z,70.37
2023-01-31T15:20:38.013Z,70.17
2023-01-31T15:23:09.299Z,69.60
2023-01-31T15:25:43.580Z,70.16
2023-01-31T15:28:16.743Z,69.80
2023-01-31T15:30:46.086Z,70.17
2023-01-31T15:33:22.588Z,69.87
2023-01-31T15:35:55.690Z,70.09
2023-01-31T15:38:31.049Z,70.12
2023-01-31T15:41:24.260Z,70.20
2023-01-31T15:43:54.590Z,69.90
2023-01-31T15:46:26.191Z,70.28
2023-01-31T15:48:56.273Z,70.19
2023-01-31T15:51:24.902Z,69.93
2023-01-31T15:54:03.399Z,69.86
2023-01-31T15:56:31.613Z,70.45
2023-01-31T15:58:59.877Z,70.32
2023-01-31T16:01:31.708Z,69.98
2023-01-31T16:04:01.865Z,70.10
2023-01-31T16:06:34.357Z,69.99
2023-01-31T16:09:05.224Z,69.97
2023-01-31T16:11:35.940Z,70.02
2023-01-31T16:14:07.550Z,69.84
2023-01-31T16:16:37.027Z,69.65
2023-01-31T16:19:07.203Z,70.28
2023-01-31T16:21:38.496Z,70.21
2023-01-31T16:24:15.465Z,69.77
2023-01-31T16:26:55.800Z,69.71
2023-01-31T16:29:29.348Z,70.01
2023-01-31T16:31:57.830Z,69.79
2023-01-31T16:34:29.849Z,69.81
2023-01-31T16:37:01.827Z,69.36
2023-01-31T16:39:39.371Z,69.38
2023-01-31T16:42:10.087Z,69.25
2023-01-31T16:44:43.131Z,68.97
2023-01-31T16:47:32.811Z,68.76
2023-01-31T16:50:43.031Z,69.08
2023-01-31T16:53:20.112Z,69.21
2023-01-31T16:56:07.902Z,68.76
2023-01-31T16:58:48.082Z,68.98
2023-01-31T17:01:18.850Z,68.53
2023-01-31T17:03:49.043Z,68.84
2023-01-31T17:06:23.450Z,68.29
2023-01-31T17:08:51.848Z,68.70
2023-01-31T17:11:40.856Z,68.96
2023-01-31T17:14:09.449Z,68.67
2023-01-31T17:16:37.381Z,68.53
2023-01-31T17:19:05.303Z,68.38
2023-01-31T17:21:41.421Z,68.50
2023-01-31T17:24:13.658Z,68.74
2023-01-31T17:26:42.205Z,68.55
2023-01-31T17:29:10.060Z,68.67
2023-01-31T17:31:38.021Z,68.51
2023-01-31T17:34:07.149Z,68.55
2023-01-31T17:36:36.509Z,68.49
2023-01-31T17:39:04.513Z,68.31
2023-01-31T17:41:35.233Z,68.45
2023-01-31T17:44:05.161Z,68.23
2023-01-31T17:46:33.417Z,68.20
2023-01-31T17:49:01.468Z,67.87
2023-01-31T17:51:29.266Z,68.14
2023-01-31T17:53:58.888Z,68.02
2023-01-31T17:56:27.214Z,68.10
2023-01-31T17:58:55.415Z,67.94
2023-01-31T18:01:23.283Z,67.97
2023-01-31T18:03:51.960Z,67.45
2023-01-31T18:06:19.847Z,67.78
2023-01-31T18:08:48.689Z,68.05
2023-01-31T18:11:19.099Z,67.13
2023-01-31T18:13:48.186Z,67.37
2023-01-31T18:16:20.958Z,67.80
2023-01-31T18:18:49.868Z,67.39
2023-01-31T18:21:21.506Z,67.61
2023-01-31T18:23:50.796Z,67.42
2023-01-31T18:26:21.966Z,67.73
2023-01-31T18:28:50.249Z,67.39
2023-01-31T18:31:20.106Z,67.64
2023-01-31T18:33:49.918Z,67.52
2023-01-31T18:36:20.230Z,67.50
2023-01-31T18:38:50.780Z,67.29
2023-01-31T18:41:22.435Z,67.42
2023-01-31T18:43:51.171Z,67.20
2023-01-31T18:46:19.287Z,67.44
2023-01-31T18:48:47.182Z,67.32
2023-01-31T18:51:16.800Z,67.24
2023-01-31T18:53:46.760Z,67.31
2023-01-31T18:56:17.285Z,67.15
2023-01-31T18:58:49.302Z,66.99
2023-01-31T19:01:19.521Z,66.73
2023-01-31T19:03:50.139Z,66.65
2023-01-31T19:06:20.783Z,67.17
2023-01-31T19:08:49.840Z,66.98
2023-01-31T19:11:18.551Z,66.93
2023-01-31T19:13:48.429Z,66.75
2023-01-31T19:16:17.818Z,66.74
2023-01-31T19:18:45.973Z,67.02
2023-01-31T19:21:17.756Z,67.12
2023-01-31T19:23:46.898Z,67.35
2023-01-31T19:26:16.250Z,67.20
2023-01-31T19:28:45.874Z,67.15
2023-01-31T19:31:17.728Z,67.22
2023-01-31T19:33:49.827Z,67.33
2023-01-31T19:36:19.164Z,67.35
2023-01-31T19:38:47.145Z,67.53
2023-01-31T19:41:19.251Z,67.66
2023-01-31T19:43:47.181Z,67.36
2023-01-31T19:46:16.823Z,67.87
2023-01-31T19:48:44.519Z,67.68
2023-01-31T19:51:14.567Z,67.68
2023-01-31T19:53:43.561Z,67.71
2023-01-31T19:56:12.092Z,67.93
2023-01-31T19:58:40.023Z,68.24
2023-01-31T20:01:09.266Z,68.45
2023-01-31T20:03:39.166Z,68.15
2023-01-31T20:06:09.263Z,68.46
2023-01-31T20:08:37.885Z,68.90
2023-01-31T20:11:07.950Z,68.64
2023-01-31T20:13:36.956Z,68.41
2023-01-31T20:16:07.774Z,68.44
2023-01-31T20:18:36.320Z,68.52
2023-01-31T20:21:06.675Z,68.13
2023-01-31T20:23:35.104Z,68.25
2023-01-31T20:26:03.196Z,68.40
2023-01-31T20:28:31.450Z,67.96
2023-01-31T20:31:05.419Z,67.80
2023-01-31T20:33:33.820Z,68.36
2023-01-31T20:36:02.589Z,68.09
2023-01-31T20:38:32.665Z,68.03
2023-01-31T20:41:00.669Z,68.12
2023-01-31T20:43:28.741Z,68.02
2023-01-31T20:46:03.757Z,68.12
2023-01-31T20:48:31.751Z,67.92
2023-01-31T20:50:59.892Z,67.92
2023-01-31T20:53:29.870Z,67.38
2023-01-31T20:56:01.173Z,67.56
2023-01-31T20:58:31.494Z,67.53
2023-01-31T21:01:01.106Z,67.98
2023-01-31T21:03:30.567Z,67.56
2023-01-31T21:06:00.532Z,67.62
2023-01-31T21:08:29.145Z,67.35
2023-01-31T21:11:00.188Z,67.31
2023-01-31T21:13:29.225Z,67.04
2023-01-31T21:15:59.185Z,67.13
2023-01-31T21:18:29.307Z,67.33
2023-01-31T21:20:57.969Z,67.52
2023-01-31T21:23:26.627Z,67.13
2023-01-31T21:25:54.584Z,66.99
2023-01-31T21:28:27.276Z,67.31
2023-01-31T21:31:00.221Z,66.97
2023-01-31T21:33:28.202Z,66.97
2023-01-31T21:35:58.125Z,67.34
2023-01-31T21:38:26.701Z,67.26
2023-01-31T21:41:15.110Z,67.31
2023-01-31T21:43:43.420Z,67.24
2023-01-31T21:46:11.889Z,67.52
2023-01-31T21:48:40.641Z,67.28
2023-01-31T21:51:11.031Z,67.67
2023-01-31T21:53:39.844Z,67.37
2023-01-31T21:56:09.776Z,67.39
2023-01-31T21:58:38.827Z,67.28
2023-01-31T22:01:10.799Z,67.07
2023-01-31T22:06:36.605Z,66.76
2023-01-31T22:09:05.279Z,67.28
2023-01-31T22:11:35.307Z,67.18
2023-01-31T22:14:07.965Z,67.16
2023-01-31T22:16:37.674Z,67.44
2023-01-31T22:19:05.743Z,67.39
2023-01-31T22:21:36.181Z,67.13
2023-01-31T22:24:06.571Z,67.35
2023-01-31T22:26:36.207Z,67.15
2023-01-31T22:29:05.502Z,67.33
2023-01-31T22:31:34.038Z,67.16
2023-01-31T22:34:05.076Z,67.22
2023-01-31T22:36:33.013Z,67.13
2023-01-31T22:39:01.481Z,67.22
2023-01-31T22:41:30.778Z,67.29
2023-01-31T22:43:58.929Z,67.22
2023-01-31T22:46:29.254Z,67.80
2023-01-31T22:48:57.186Z,67.50
2023-01-31T22:51:29.468Z,67.77
2023-01-31T22:53:59.526Z,68.02
2023-01-31T22:56:29.577Z,68.00
2023-01-31T22:58:58.504Z,68.37
2023-01-31T23:01:29.470Z,68.44
2023-01-31T23:03:58.898Z,68.63
2023-01-31T23:06:29.984Z,68.58
2023-01-31T23:08:58.723Z,68.44
2023-01-31T23:11:27.305Z,68.78
2023-01-31T23:13:55.863Z,68.71
2023-01-31T23:16:45.970Z,68.48
2023-01-31T23:19:14.999Z,68.22
2023-01-31T23:21:45.395Z,68.59
2023-01-31T23:24:14.595Z,68.21
2023-01-31T23:26:43.658Z,67.68
2023-01-31T23:29:11.807Z,67.94
2023-01-31T23:31:40.032Z,68.04
2023-01-31T23:34:11.348Z,67.81
2023-01-31T23:36:39.240Z,67.69
2023-01-31T23:39:08.653Z,67.36
2023-01-31T23:41:37.159Z,67.71
2023-01-31T23:44:05.069Z,67.84
2023-01-31T23:46:33.200Z,68.11
2023-01-31T23:49:01.762Z,67.89
2023-01-31T23:51:31.374Z,68.05
2023-01-31T23:53:59.012Z,67.84
2023-01-31T23:56:29.219Z,67.84
2023-01-31T23:58:57.324Z,67.85
